Impacts TAF Board
For situational awareness. Not to be used for flight planning purposes.
IDs:

KPHX - Phoenix/Sky Harbor, AZ, US

Issued at 2128 UTC 01 Feb 2023
Updated at 2322 UTC 01 Feb 2023
Potential Impact None Slight Moderate High
Time<<02/12Z 02/13Z 02/14Z 02/15Z 02/16Z 02/17Z 02/18Z 02/19Z 02/20Z 02/21Z 02/22Z 02/23Z 03/00Z>>
Type PRVL PRVL PRVL PRVL PRVL PRVL PRVL PRVL PRVL PRVL PRVL PRVL
VIS >6 >6 >6 >6 >6 >6 >6 >6 >6 >6 >6 >6
CIG -- -- -- -- -- -- -- -- -- -- -- --
Cover SKC SKC SKC SKC SKC SKC SKC SKC SKC SKC SKC SKC
FltCat VFR VFR VFR VFR VFR VFR VFR VFR VFR VFR VFR VFR
WX -- -- -- -- -- -- -- -- -- -- -- --
WDir 120 120 120 120 120 120 120 120 120 120 320 320
WSpd 4 4 4 4 4 4 4 4 4 4 5 5
WGst -- -- -- -- -- -- -- -- -- -- -- --
WSHgt -- -- -- -- -- -- -- -- -- -- -- --
WSDir -- -- -- -- -- -- -- -- -- -- -- --
WSSpd -- -- -- -- -- -- -- -- -- -- -- --
R07/25
XWnd -2 -2 -2 -2 -2 -2 -2 -2 -2 -2 4 4 0
HWnd 3 3 3 3 3 3 3 3 3 3 -3 -3 0
R08/26
XWnd -2 -2 -2 -2 -2 -2 -2 -2 -2 -2 4 4 0
HWnd 3 3 3 3 3 3 3 3 3 3 -3 -3 0

NOTE: LAMP data beyond the time of the TAF data is denoted as LAMP in Type and colored magenta.

Raw TAF
KPHX 012128Z 0121/0224 27005KT P6SM SKC
  FM020800 12004KT P6SM SKC
  FM022200 32005KT P6SM SKC


METAR Board
Radar Display
Forecast Discussion

For situational awareness. Not to be used for flight planning purposes.